sensor_id;sensor_type;location;lat;lon;timestamp;pressure;altitude;pressure_sealevel;temperature;humidity
65553;BME280;52465;51.560;14.368;2022-12-11T00:01:13;99618.75;;;7.59;64.20
65553;BME280;52465;51.560;14.368;2022-12-11T00:03:39;99623.81;;;7.61;64.92
65553;BME280;52465;51.560;14.368;2022-12-11T00:06:12;99638.97;;;7.65;65.01
65553;BME280;52465;51.560;14.368;2022-12-11T00:08:41;99633.94;;;7.64;65.04
65553;BME280;52465;51.560;14.368;2022-12-11T00:11:08;99641.25;;;7.68;64.87
65553;BME280;52465;51.560;14.368;2022-12-11T00:13:34;99623.44;;;7.56;65.35
65553;BME280;52465;51.560;14.368;2022-12-11T00:15:59;99641.25;;;7.68;64.86
65553;BME280;52465;51.560;14.368;2022-12-11T00:18:24;99629.34;;;7.58;65.15
65553;BME280;52465;51.560;14.368;2022-12-11T00:20:50;99645.53;;;7.69;65.36
65553;BME280;52465;51.560;14.368;2022-12-11T00:23:15;99642.56;;;7.64;64.85
65553;BME280;52465;51.560;14.368;2022-12-11T00:25:44;99649.31;;;7.75;64.73
65553;BME280;52465;51.560;14.368;2022-12-11T00:28:12;99641.59;;;7.65;64.76
65553;BME280;52465;51.560;14.368;2022-12-11T00:30:40;99642.59;;;7.73;65.39
65553;BME280;52465;51.560;14.368;2022-12-11T00:33:06;99602.34;;;7.41;64.92
65553;BME280;52465;51.560;14.368;2022-12-11T00:35:32;99629.53;;;7.64;64.74
65553;BME280;52465;51.560;14.368;2022-12-11T00:37:57;99634.28;;;7.69;65.11
65553;BME280;52465;51.560;14.368;2022-12-11T00:40:23;99634.28;;;7.69;64.85
65553;BME280;52465;51.560;14.368;2022-12-11T00:42:48;99636.72;;;7.71;65.28
65553;BME280;52465;51.560;14.368;2022-12-11T00:45:13;99640.31;;;7.69;65.01
65553;BME280;52465;51.560;14.368;2022-12-11T00:47:39;99648.78;;;7.72;64.95
65553;BME280;52465;51.560;14.368;2022-12-11T00:50:05;99613.78;;;7.48;64.79
65553;BME280;52465;51.560;14.368;2022-12-11T00:52:30;99620.47;;;7.51;64.62
65553;BME280;52465;51.560;14.368;2022-12-11T00:54:55;99643.22;;;7.66;65.55
65553;BME280;52465;51.560;14.368;2022-12-11T00:57:21;99628.00;;;7.54;64.67
65553;BME280;52465;51.560;14.368;2022-12-11T00:59:46;99654.97;;;7.71;65.20
65553;BME280;52465;51.560;14.368;2022-12-11T01:02:11;99627.66;;;7.57;64.93
65553;BME280;52465;51.560;14.368;2022-12-11T01:04:37;99614.91;;;7.46;64.87
65553;BME280;52465;51.560;14.368;2022-12-11T01:07:02;99647.59;;;7.66;65.06
65553;BME280;52465;51.560;14.368;2022-12-11T01:09:28;99646.63;;;7.67;64.59
65553;BME280;52465;51.560;14.368;2022-12-11T01:12:11;99645.00;;;7.66;65.21
65553;BME280;52465;51.560;14.368;2022-12-11T01:14:37;99649.06;;;7.68;65.36
65553;BME280;52465;51.560;14.368;2022-12-11T01:17:02;99640.59;;;7.66;64.97
65553;BME280;52465;51.560;14.368;2022-12-11T01:19:27;99638.31;;;7.63;65.29
65553;BME280;52465;51.560;14.368;2022-12-11T01:21:53;99638.97;;;7.65;65.04
65553;BME280;52465;51.560;14.368;2022-12-11T01:24:18;99625.06;;;7.57;65.54
65553;BME280;52465;51.560;14.368;2022-12-11T01:26:43;99635.03;;;7.61;64.47
65553;BME280;52465;51.560;14.368;2022-12-11T01:29:09;99602.69;;;7.46;65.06
65553;BME280;52465;51.560;14.368;2022-12-11T01:31:35;99617.41;;;7.55;65.15
65553;BME280;52465;51.560;14.368;2022-12-11T01:34:00;99610.88;;;7.51;65.29
65553;BME280;52465;51.560;14.368;2022-12-11T01:36:25;99631.16;;;7.65;65.00
65553;BME280;52465;51.560;14.368;2022-12-11T01:38:51;99641.59;;;7.65;65.02
65553;BME280;52465;51.560;14.368;2022-12-11T01:41:19;99637.84;;;7.68;65.12
65553;BME280;52465;51.560;14.368;2022-12-11T01:44:04;99638.66;;;7.68;65.34
65553;BME280;52465;51.560;14.368;2022-12-11T01:46:32;99632.63;;;7.68;64.64
65553;BME280;52465;51.560;14.368;2022-12-11T01:49:00;99630.34;;;7.65;64.64
65553;BME280;52465;51.560;14.368;2022-12-11T01:51:28;99636.06;;;7.68;65.39
65553;BME280;52465;51.560;14.368;2022-12-11T01:53:59;99622.69;;;7.63;64.98
65553;BME280;52465;51.560;14.368;2022-12-11T01:56:26;99620.09;;;7.63;64.96
65553;BME280;52465;51.560;14.368;2022-12-11T01:58:55;99631.97;;;7.66;64.93
65553;BME280;52465;51.560;14.368;2022-12-11T02:01:28;99629.66;;;7.63;64.47
65553;BME280;52465;51.560;14.368;2022-12-11T02:03:56;99628.84;;;7.62;65.09
65553;BME280;52465;51.560;14.368;2022-12-11T02:06:35;99636.22;;;7.67;65.36
65553;BME280;52465;51.560;14.368;2022-12-11T02:09:05;99581.47;;;7.33;64.12
65553;BME280;52465;51.560;14.368;2022-12-11T02:11:43;99632.13;;;7.64;64.84
65553;BME280;52465;51.560;14.368;2022-12-11T02:14:24;99622.34;;;7.58;65.07
65553;BME280;52465;51.560;14.368;2022-12-11T02:17:12;99586.88;;;7.39;64.98
65553;BME280;52465;51.560;14.368;2022-12-11T02:27:44;99621.03;;;7.62;64.37
65553;BME280;52465;51.560;14.368;2022-12-11T02:30:13;99626.94;;;7.64;64.96
65553;BME280;52465;51.560;14.368;2022-12-11T02:32:53;99620.69;;;7.57;64.65
65553;BME280;52465;51.560;14.368;2022-12-11T02:35:32;99630.34;;;7.65;64.85
65553;BME280;52465;51.560;14.368;2022-12-11T02:38:02;99624.47;;;7.63;64.83
65553;BME280;52465;51.560;14.368;2022-12-11T02:40:30;99605.53;;;7.53;64.86
65553;BME280;52465;51.560;14.368;2022-12-11T02:42:59;99616.81;;;7.61;64.50
65553;BME280;52465;51.560;14.368;2022-12-11T02:45:26;99607.81;;;7.56;65.36
65553;BME280;52465;51.560;14.368;2022-12-11T02:47:52;99607.81;;;7.56;64.94
65553;BME280;52465;51.560;14.368;2022-12-11T02:50:20;99600.44;;;7.51;65.11
65553;BME280;52465;51.560;14.368;2022-12-11T02:52:49;99620.38;;;7.60;65.22
65553;BME280;52465;51.560;14.368;2022-12-11T02:55:16;99618.59;;;7.61;64.93
65553;BME280;52465;51.560;14.368;2022-12-11T02:57:46;99607.81;;;7.56;65.30
65553;BME280;52465;51.560;14.368;2022-12-11T03:00:13;99617.13;;;7.58;65.59
65553;BME280;52465;51.560;14.368;2022-12-11T03:02:40;99590.66;;;7.45;65.06
65553;BME280;52465;51.560;14.368;2022-12-11T03:05:07;99608.63;;;7.56;65.04
65553;BME280;52465;51.560;14.368;2022-12-11T03:07:36;99572.47;;;7.27;64.99
65553;BME280;52465;51.560;14.368;2022-12-11T03:10:03;99612.84;;;7.57;64.76
65553;BME280;52465;51.560;14.368;2022-12-11T03:12:32;99618.75;;;7.59;64.86
65553;BME280;52465;51.560;14.368;2022-12-11T03:15:01;99616.81;;;7.61;64.87
65553;BME280;52465;51.560;14.368;2022-12-11T03:17:35;99607.31;;;7.52;64.60
65553;BME280;52465;51.560;14.368;2022-12-11T03:23:11;99633.25;;;7.62;64.88
65553;BME280;52465;51.560;14.368;2022-12-11T03:26:04;99630.81;;;7.60;64.77
65553;BME280;52465;51.560;14.368;2022-12-11T03:31:13;99605.47;;;7.45;64.80
65553;BME280;52465;51.560;14.368;2022-12-11T03:33:44;99634.06;;;7.62;65.05
65553;BME280;52465;51.560;14.368;2022-12-11T03:36:22;99605.16;;;7.48;64.38
65553;BME280;52465;51.560;14.368;2022-12-11T03:38:51;99606.47;;;7.52;65.10
65553;BME280;52465;51.560;14.368;2022-12-11T03:41:21;99612.81;;;7.49;65.17
65553;BME280;52465;51.560;14.368;2022-12-11T03:43:51;99626.22;;;7.54;65.01
65553;BME280;52465;51.560;14.368;2022-12-11T03:46:20;99616.06;;;7.51;64.97
65553;BME280;52465;51.560;14.368;2022-12-11T03:48:47;99631.78;;;7.59;64.57
65553;BME280;52465;51.560;14.368;2022-12-11T03:51:14;99617.22;;;7.49;64.58
65553;BME280;52465;51.560;14.368;2022-12-11T03:53:40;99622.25;;;7.50;64.72
65553;BME280;52465;51.560;14.368;2022-12-11T03:56:07;99593.50;;;7.34;64.22
65553;BME280;52465;51.560;14.368;2022-12-11T03:58:34;99625.75;;;7.59;64.84
65553;BME280;52465;51.560;14.368;2022-12-11T04:00:59;99627.53;;;7.58;64.98
65553;BME280;52465;51.560;14.368;2022-12-11T04:03:25;99576.84;;;7.27;64.30
65553;BME280;52465;51.560;14.368;2022-12-11T04:05:52;99604.81;;;7.42;64.89
65553;BME280;52465;51.560;14.368;2022-12-11T04:08:18;99621.81;;;7.55;65.14
65553;BME280;52465;51.560;14.368;2022-12-11T04:10:48;99617.41;;;7.55;65.11
65553;BME280;52465;51.560;14.368;2022-12-11T04:13:26;99606.63;;;7.50;64.53
65553;BME280;52465;51.560;14.368;2022-12-11T04:15:51;99614.00;;;7.55;64.63
65553;BME280;52465;51.560;14.368;2022-12-11T04:18:16;99592.88;;;7.40;64.80
65553;BME280;52465;51.560;14.368;2022-12-11T04:21:01;99614.28;;;7.52;64.54
65553;BME280;52465;51.560;14.368;2022-12-11T04:23:48;99621.66;;;7.56;65.27
65553;BME280;52465;51.560;14.368;2022-12-11T04:26:40;99601.03;;;7.37;64.60
65553;BME280;52465;51.560;14.368;2022-12-11T04:29:06;99602.34;;;7.41;64.47
65553;BME280;52465;51.560;14.368;2022-12-11T04:31:31;99616.25;;;7.50;64.52
65553;BME280;52465;51.560;14.368;2022-12-11T04:33:57;99561.03;;;7.20;64.51
65553;BME280;52465;51.560;14.368;2022-12-11T04:36:22;99623.16;;;7.59;64.61
65553;BME280;52465;51.560;14.368;2022-12-11T04:38:48;99619.22;;;7.55;65.26
65553;BME280;52465;51.560;14.368;2022-12-11T04:41:14;99603.66;;;7.45;65.13
65553;BME280;52465;51.560;14.368;2022-12-11T04:43:41;99584.88;;;7.33;64.99
65553;BME280;52465;51.560;14.368;2022-12-11T04:46:15;99618.06;;;7.57;65.30
65553;BME280;52465;51.560;14.368;2022-12-11T04:48:41;99614.28;;;7.52;64.64
65553;BME280;52465;51.560;14.368;2022-12-11T04:51:07;99614.53;;;7.58;64.72
65553;BME280;52465;51.560;14.368;2022-12-11T04:53:33;99600.44;;;7.51;64.74
65553;BME280;52465;51.560;14.368;2022-12-11T04:55:58;99606.47;;;7.52;64.56
65553;BME280;52465;51.560;14.368;2022-12-11T04:58:24;99591.81;;;7.51;65.19
65553;BME280;52465;51.560;14.368;2022-12-11T05:00:50;99596.38;;;7.49;64.93
65553;BME280;52465;51.560;14.368;2022-12-11T05:03:16;99603.41;;;7.56;64.83
65553;BME280;52465;51.560;14.368;2022-12-11T05:05:50;99602.59;;;7.56;64.48
65553;BME280;52465;51.560;14.368;2022-12-11T05:08:16;99587.22;;;7.45;64.12
65553;BME280;52465;51.560;14.368;2022-12-11T05:10:42;99601.94;;;7.54;64.62
65553;BME280;52465;51.560;14.368;2022-12-11T05:13:07;99552.78;;;7.25;64.35
65553;BME280;52465;51.560;14.368;2022-12-11T05:15:33;99578.59;;;7.44;64.78
65553;BME280;52465;51.560;14.368;2022-12-11T05:18:01;99593.31;;;7.53;64.71
65553;BME280;52465;51.560;14.368;2022-12-11T05:20:26;99585.16;;;7.48;65.01
65553;BME280;52465;51.560;14.368;2022-12-11T05:22:52;99579.94;;;7.48;64.59
65553;BME280;52465;51.560;14.368;2022-12-11T05:25:17;99588.94;;;7.54;64.84
65553;BME280;52465;51.560;14.368;2022-12-11T05:27:42;99587.13;;;7.54;64.71
65553;BME280;52465;51.560;14.368;2022-12-11T05:30:08;99596.56;;;7.55;64.81
65553;BME280;52465;51.560;14.368;2022-12-11T05:32:34;99573.38;;;7.44;65.04
65553;BME280;52465;51.560;14.368;2022-12-11T05:34:59;99575.91;;;7.54;64.77
65553;BME280;52465;51.560;14.368;2022-12-11T05:37:25;99527.81;;;7.14;64.97
65553;BME280;52465;51.560;14.368;2022-12-11T05:39:50;99555.25;;;7.34;64.96
65553;BME280;52465;51.560;14.368;2022-12-11T05:42:16;99554.31;;;7.35;64.99
65553;BME280;52465;51.560;14.368;2022-12-11T05:44:41;99575.03;;;7.45;64.89
65553;BME280;52465;51.560;14.368;2022-12-11T05:47:06;99549.56;;;7.31;64.75
65553;BME280;52465;51.560;14.368;2022-12-11T05:49:33;99570.78;;;7.44;64.60
65553;BME280;52465;51.560;14.368;2022-12-11T05:51:58;99547.94;;;7.30;64.56
65553;BME280;52465;51.560;14.368;2022-12-11T05:54:23;99571.44;;;7.46;64.67
65553;BME280;52465;51.560;14.368;2022-12-11T05:56:49;99566.41;;;7.45;64.51
65553;BME280;52465;51.560;14.368;2022-12-11T05:59:15;99581.28;;;7.52;64.53
65553;BME280;52465;51.560;14.368;2022-12-11T06:01:41;99490.44;;;6.97;64.54
65553;BME280;52465;51.560;14.368;2022-12-11T06:04:08;99581.28;;;7.52;64.83
65553;BME280;52465;51.560;14.368;2022-12-11T06:06:35;99584.69;;;7.53;64.76
65553;BME280;52465;51.560;14.368;2022-12-11T06:09:02;99569.69;;;7.47;64.51
65553;BME280;52465;51.560;14.368;2022-12-11T06:11:29;99577.81;;;7.52;64.29
65553;BME280;52465;51.560;14.368;2022-12-11T06:13:55;99532.91;;;7.24;64.91
65553;BME280;52465;51.560;14.368;2022-12-11T06:16:21;99518.06;;;7.16;64.85
65553;BME280;52465;51.560;14.368;2022-12-11T06:18:47;99571.16;;;7.49;64.27
65553;BME280;52465;51.560;14.368;2022-12-11T06:21:26;99567.91;;;7.47;64.85
65553;BME280;52465;51.560;14.368;2022-12-11T06:23:53;99564.59;;;7.45;64.51
65553;BME280;52465;51.560;14.368;2022-12-11T06:26:19;99572.47;;;7.53;65.27
65553;BME280;52465;51.560;14.368;2022-12-11T06:28:45;99561.88;;;7.47;64.51
65553;BME280;52465;51.560;14.368;2022-12-11T06:31:11;99547.59;;;7.33;64.68
65553;BME280;52465;51.560;14.368;2022-12-11T06:33:37;99569.97;;;7.43;64.26
65553;BME280;52465;51.560;14.368;2022-12-11T06:36:04;99572.41;;;7.45;64.70
65553;BME280;52465;51.560;14.368;2022-12-11T06:38:30;99570.13;;;7.42;64.80
65553;BME280;52465;51.560;14.368;2022-12-11T06:40:57;99558.38;;;7.38;64.26
65553;BME280;52465;51.560;14.368;2022-12-11T06:43:23;99571.16;;;7.49;64.80
65553;BME280;52465;51.560;14.368;2022-12-11T06:45:51;99562.63;;;7.39;64.83
65553;BME280;52465;51.560;14.368;2022-12-11T06:48:17;99573.09;;;7.47;64.95
65553;BME280;52465;51.560;14.368;2022-12-11T06:50:43;99577.34;;;7.48;64.54
65553;BME280;52465;51.560;14.368;2022-12-11T06:53:10;99587.59;;;7.50;64.72
65553;BME280;52465;51.560;14.368;2022-12-11T06:55:35;99581.22;;;7.44;65.07
65553;BME280;52465;51.560;14.368;2022-12-11T06:58:01;99576.81;;;7.45;65.23
65553;BME280;52465;51.560;14.368;2022-12-11T07:00:26;99583.81;;;7.44;64.62
65553;BME280;52465;51.560;14.368;2022-12-11T07:02:52;99558.03;;;7.33;64.78
65553;BME280;52465;51.560;14.368;2022-12-11T07:05:18;99586.13;;;7.47;64.96
65553;BME280;52465;51.560;14.368;2022-12-11T07:07:43;99576.44;;;7.39;64.67
65553;BME280;52465;51.560;14.368;2022-12-11T07:10:09;99556.69;;;7.29;65.04
65553;BME280;52465;51.560;14.368;2022-12-11T07:15:09;99583.66;;;7.46;64.62
65553;BME280;52465;51.560;14.368;2022-12-11T07:17:34;99557.22;;;7.32;64.49
65553;BME280;52465;51.560;14.368;2022-12-11T07:19:59;99578.06;;;7.40;64.67
65553;BME280;52465;51.560;14.368;2022-12-11T07:22:25;99590.66;;;7.45;64.68
65553;BME280;52465;51.560;14.368;2022-12-11T07:27:25;99556.00;;;7.19;64.50
65553;BME280;52465;51.560;14.368;2022-12-11T07:29:50;99577.88;;;7.34;64.50
65553;BME280;52465;51.560;14.368;2022-12-11T07:32:16;99594.56;;;7.41;64.47
65553;BME280;52465;51.560;14.368;2022-12-11T07:34:41;99595.19;;;7.43;64.94
65553;BME280;52465;51.560;14.368;2022-12-11T07:37:07;99579.47;;;7.27;64.53
65553;BME280;52465;51.560;14.368;2022-12-11T07:39:32;99608.59;;;7.48;64.48
65553;BME280;52465;51.560;14.368;2022-12-11T07:41:57;99612.28;;;7.46;64.31
65553;BME280;52465;51.560;14.368;2022-12-11T07:44:22;99602.00;;;7.36;64.40
65553;BME280;52465;51.560;14.368;2022-12-11T07:46:48;99560.09;;;7.03;64.76
65553;BME280;52465;51.560;14.368;2022-12-11T07:49:13;99629.06;;;7.43;64.42
65553;BME280;52465;51.560;14.368;2022-12-11T07:51:38;99615.06;;;7.44;64.46
65553;BME280;52465;51.560;14.368;2022-12-11T07:54:10;99615.06;;;7.44;64.28
65553;BME280;52465;51.560;14.368;2022-12-11T07:56:39;99624.50;;;7.45;64.36
65553;BME280;52465;51.560;14.368;2022-12-11T07:59:05;99619.28;;;7.45;64.28
65553;BME280;52465;51.560;14.368;2022-12-11T08:01:33;99571.72;;;7.17;64.51
65553;BME280;52465;51.560;14.368;2022-12-11T08:04:05;99627.09;;;7.45;64.61
65553;BME280;52465;51.560;14.368;2022-12-11T08:06:34;99585.56;;;7.18;64.63
65553;BME280;52465;51.560;14.368;2022-12-11T08:09:00;99580.97;;;7.11;64.50
65553;BME280;52465;51.560;14.368;2022-12-11T08:11:27;99629.06;;;7.43;64.17
65553;BME280;52465;51.560;14.368;2022-12-11T08:13:52;99628.41;;;7.41;64.68
65553;BME280;52465;51.560;14.368;2022-12-11T08:16:18;99631.50;;;7.45;64.15
65553;BME280;52465;51.560;14.368;2022-12-11T08:18:45;99626.97;;;7.47;64.75
65553;BME280;52465;51.560;14.368;2022-12-11T08:21:19;99623.69;;;7.45;64.43
65553;BME280;52465;51.560;14.368;2022-12-11T08:23:45;99622.81;;;7.36;64.43
65553;BME280;52465;51.560;14.368;2022-12-11T08:26:17;99563.66;;;7.02;64.56
65553;BME280;52465;51.560;14.368;2022-12-11T08:28:42;99621.03;;;7.36;64.07
65553;BME280;52465;51.560;14.368;2022-12-11T08:31:10;99627.44;;;7.42;64.64
65553;BME280;52465;51.560;14.368;2022-12-11T08:33:36;99601.75;;;7.29;64.18
65553;BME280;52465;51.560;14.368;2022-12-11T08:36:03;99614.09;;;7.45;64.62
65553;BME280;52465;51.560;14.368;2022-12-11T08:38:29;99571.91;;;7.15;64.15
65553;BME280;52465;51.560;14.368;2022-12-11T08:40:55;99609.28;;;7.32;64.68
65553;BME280;52465;51.560;14.368;2022-12-11T08:43:21;99559.28;;;7.03;64.49
65553;BME280;52465;51.560;14.368;2022-12-11T08:45:46;99600.56;;;7.41;64.42
65553;BME280;52465;51.560;14.368;2022-12-11T08:48:11;99606.69;;;7.32;64.42
65553;BME280;52465;51.560;14.368;2022-12-11T08:50:37;99620.22;;;7.36;64.70
65553;BME280;52465;51.560;14.368;2022-12-11T08:53:02;99591.31;;;7.21;64.02
65553;BME280;52465;51.560;14.368;2022-12-11T08:55:28;99599.03;;;7.31;64.39
65553;BME280;52465;51.560;14.368;2022-12-11T08:57:53;99613.59;;;7.41;64.89
65553;BME280;52465;51.560;14.368;2022-12-11T09:00:18;99608.84;;;7.37;65.07
65553;BME280;52465;51.560;14.368;2022-12-11T09:02:44;99620.72;;;7.39;64.20
65553;BME280;52465;51.560;14.368;2022-12-11T09:05:10;99601.19;;;7.35;64.76
65553;BME280;52465;51.560;14.368;2022-12-11T09:07:36;99579.41;;;7.19;64.96
65553;BME280;52465;51.560;14.368;2022-12-11T09:10:04;99616.84;;;7.43;64.71
65553;BME280;52465;51.560;14.368;2022-12-11T09:12:32;99571.91;;;7.15;64.35
65553;BME280;52465;51.560;14.368;2022-12-11T09:14:57;99574.22;;;7.19;65.04
65553;BME280;52465;51.560;14.368;2022-12-11T09:17:22;99556.22;;;7.07;63.79
65553;BME280;52465;51.560;14.368;2022-12-11T09:19:48;99562.00;;;7.19;64.64
65553;BME280;52465;51.560;14.368;2022-12-11T09:22:13;99581.91;;;7.28;65.06
65553;BME280;52465;51.560;14.368;2022-12-11T09:24:39;99576.69;;;7.28;64.57
65553;BME280;52465;51.560;14.368;2022-12-11T09:27:04;99599.44;;;7.44;64.15
65553;BME280;52465;51.560;14.368;2022-12-11T09:29:30;99590.00;;;7.43;64.50
65553;BME280;52465;51.560;14.368;2022-12-11T09:31:56;99556.66;;;7.21;64.56
65553;BME280;52465;51.560;14.368;2022-12-11T09:34:21;99579.81;;;7.32;64.74
65553;BME280;52465;51.560;14.368;2022-12-11T09:36:47;99572.84;;;7.32;64.71
65553;BME280;52465;51.560;14.368;2022-12-11T09:39:15;99575.16;;;7.35;64.63
65553;BME280;52465;51.560;14.368;2022-12-11T09:41:54;99581.97;;;7.36;64.89
65553;BME280;52465;51.560;14.368;2022-12-11T09:44:31;99584.41;;;7.38;63.84
65553;BME280;52465;51.560;14.368;2022-12-11T09:46:58;99589.47;;;7.39;64.44
65553;BME280;52465;51.560;14.368;2022-12-11T09:49:38;99594.38;;;7.42;64.14
65553;BME280;52465;51.560;14.368;2022-12-11T09:52:11;99592.88;;;7.40;64.53
65553;BME280;52465;51.560;14.368;2022-12-11T09:54:44;99562.38;;;7.24;64.51
65553;BME280;52465;51.560;14.368;2022-12-11T10:00:02;99586.75;;;7.41;64.75
65553;BME280;52465;51.560;14.368;2022-12-11T10:03:02;99585.88;;;7.40;64.83
65553;BME280;52465;51.560;14.368;2022-12-11T10:05:41;99577.16;;;7.24;64.30
65553;BME280;52465;51.560;14.368;2022-12-11T10:08:16;99586.88;;;7.39;64.22
65553;BME280;52465;51.560;14.368;2022-12-11T10:10:56;99586.66;;;7.33;64.47
65553;BME280;52465;51.560;14.368;2022-12-11T10:16:32;99577.59;;;7.37;63.89
65553;BME280;52465;51.560;14.368;2022-12-11T10:18:59;99580.47;;;7.34;64.37
65553;BME280;52465;51.560;14.368;2022-12-11T10:21:25;99578.56;;;7.36;64.56
65553;BME280;52465;51.560;14.368;2022-12-11T10:24:00;99580.34;;;7.35;64.18
65553;BME280;52465;51.560;14.368;2022-12-11T10:26:30;99561.91;;;7.29;64.68
65553;BME280;52465;51.560;14.368;2022-12-11T10:28:59;99561.75;;;7.30;64.17
65553;BME280;52465;51.560;14.368;2022-12-11T10:31:56;99548.84;;;7.21;64.45
65553;BME280;52465;51.560;14.368;2022-12-11T10:34:35;99567.34;;;7.35;64.07
65553;BME280;52465;51.560;14.368;2022-12-11T10:37:02;99556.56;;;7.30;64.76
65553;BME280;52465;51.560;14.368;2022-12-11T10:39:27;99558.84;;;7.33;64.11
65553;BME280;52465;51.560;14.368;2022-12-11T10:41:54;99554.09;;;7.29;64.53
65553;BME280;52465;51.560;14.368;2022-12-11T10:44:28;99540.69;;;7.24;64.54
65553;BME280;52465;51.560;14.368;2022-12-11T10:49:33;99543.38;;;7.32;64.57
65553;BME280;52465;51.560;14.368;2022-12-11T10:52:00;99528.38;;;7.26;64.25
65553;BME280;52465;51.560;14.368;2022-12-11T10:54:35;99530.00;;;7.27;64.54
65553;BME280;52465;51.560;14.368;2022-12-11T10:57:08;99546.34;;;7.37;64.01
65553;BME280;52465;51.560;14.368;2022-12-11T11:02:05;99542.09;;;7.36;64.05
65553;BME280;52465;51.560;14.368;2022-12-11T11:04:35;99523.66;;;7.29;64.03
65553;BME280;52465;51.560;14.368;2022-12-11T11:07:20;99511.41;;;7.22;64.41
65553;BME280;52465;51.560;14.368;2022-12-11T11:09:45;99521.56;;;7.33;64.67
65553;BME280;52465;51.560;14.368;2022-12-11T11:12:20;99503.16;;;7.26;64.02
65553;BME280;52465;51.560;14.368;2022-12-11T11:15:01;99519.94;;;7.32;64.41
65553;BME280;52465;51.560;14.368;2022-12-11T11:17:27;99502.50;;;7.24;64.29
65553;BME280;52465;51.560;14.368;2022-12-11T11:22:44;99523.06;;;7.35;64.09
65553;BME280;52465;51.560;14.368;2022-12-11T11:25:15;99518.81;;;7.34;64.32
65553;BME280;52465;51.560;14.368;2022-12-11T11:27:47;99508.56;;;7.33;64.08
65553;BME280;52465;51.560;14.368;2022-12-11T11:30:21;99494.00;;;7.22;64.19
65553;BME280;52465;51.560;14.368;2022-12-11T11:32:49;99483.75;;;7.21;64.33
65553;BME280;52465;51.560;14.368;2022-12-11T11:35:19;99512.94;;;7.32;64.58
65553;BME280;52465;51.560;14.368;2022-12-11T11:37:53;99496.81;;;7.29;64.18
65553;BME280;52465;51.560;14.368;2022-12-11T11:40:28;99485.75;;;7.27;64.00
65553;BME280;52465;51.560;14.368;2022-12-11T11:43:06;99498.13;;;7.33;64.21
65553;BME280;52465;51.560;14.368;2022-12-11T11:45:45;99498.94;;;7.33;64.30
65553;BME280;52465;51.560;14.368;2022-12-11T11:48:43;99464.16;;;7.08;64.37
65553;BME280;52465;51.560;14.368;2022-12-11T11:51:21;99499.75;;;7.34;64.34
65553;BME280;52465;51.560;14.368;2022-12-11T11:53:50;99481.44;;;7.18;64.56
65553;BME280;52465;51.560;14.368;2022-12-11T11:56:20;99488.34;;;7.27;64.13
65553;BME280;52465;51.560;14.368;2022-12-11T12:01:17;99490.78;;;7.28;64.81
65553;BME280;52465;51.560;14.368;2022-12-11T12:03:44;99493.25;;;7.30;63.73
65553;BME280;52465;51.560;14.368;2022-12-11T12:06:24;99492.94;;;7.33;64.41
65553;BME280;52465;51.560;14.368;2022-12-11T12:09:02;99496.34;;;7.33;64.38
65553;BME280;52465;51.560;14.368;2022-12-11T12:11:41;99447.38;;;7.03;64.30
65553;BME280;52465;51.560;14.368;2022-12-11T12:14:18;99489.34;;;7.34;64.09
65553;BME280;52465;51.560;14.368;2022-12-11T12:19:37;99496.50;;;7.32;64.41
65553;BME280;52465;51.560;14.368;2022-12-11T12:27:47;99490.31;;;7.33;64.06
65553;BME280;52465;51.560;14.368;2022-12-11T12:30:17;99492.94;;;7.33;64.91
65553;BME280;52465;51.560;14.368;2022-12-11T12:35:35;99477.28;;;7.25;63.83
65553;BME280;52465;51.560;14.368;2022-12-11T12:38:20;99477.13;;;7.26;64.27
65553;BME280;52465;51.560;14.368;2022-12-11T12:41:12;99493.91;;;7.32;64.29
65553;BME280;52465;51.560;14.368;2022-12-11T12:44:13;99485.44;;;7.30;63.76
65553;BME280;52465;51.560;14.368;2022-12-11T12:46:42;99482.69;;;7.31;64.15
65553;BME280;52465;51.560;14.368;2022-12-11T12:49:11;99480.06;;;7.31;64.18
65553;BME280;52465;51.560;14.368;2022-12-11T12:51:39;99473.53;;;7.27;64.41
65553;BME280;52465;51.560;14.368;2022-12-11T12:54:06;99471.59;;;7.29;64.18
65553;BME280;52465;51.560;14.368;2022-12-11T12:56:34;99460.16;;;7.22;63.97
65553;BME280;52465;51.560;14.368;2022-12-11T12:59:01;99476.78;;;7.29;64.29
65553;BME280;52465;51.560;14.368;2022-12-11T13:01:27;99430.44;;;6.99;64.52
65553;BME280;52465;51.560;14.368;2022-12-11T13:04:00;99461.78;;;7.23;64.43
65553;BME280;52465;51.560;14.368;2022-12-11T13:06:34;99473.53;;;7.27;63.84
65553;BME280;52465;51.560;14.368;2022-12-11T13:09:23;99470.63;;;7.30;64.45
65553;BME280;52465;51.560;14.368;2022-12-11T13:11:51;99479.25;;;7.31;64.36
65553;BME280;52465;51.560;14.368;2022-12-11T13:16:44;99440.06;;;7.06;63.97
65553;BME280;52465;51.560;14.368;2022-12-11T13:22:02;99467.22;;;7.30;64.16
65553;BME280;52465;51.560;14.368;2022-12-11T13:24:30;99419.72;;;7.02;64.23
65553;BME280;52465;51.560;14.368;2022-12-11T13:29:40;99398.00;;;6.85;64.24
65553;BME280;52465;51.560;14.368;2022-12-11T13:34:37;99446.16;;;7.23;64.18
65553;BME280;52465;51.560;14.368;2022-12-11T13:37:04;99451.38;;;7.23;64.41
65553;BME280;52465;51.560;14.368;2022-12-11T13:39:33;99436.84;;;7.12;64.38
65553;BME280;52465;51.560;14.368;2022-12-11T13:42:06;99407.47;;;6.94;64.68
65553;BME280;52465;51.560;14.368;2022-12-11T13:44:35;99462.81;;;7.30;64.49
65553;BME280;52465;51.560;14.368;2022-12-11T13:47:04;99459.88;;;7.25;64.03
65553;BME280;52465;51.560;14.368;2022-12-11T13:49:36;99443.38;;;7.16;64.56
65553;BME280;52465;51.560;14.368;2022-12-11T13:52:18;99463.75;;;7.21;64.27
65553;BME280;52465;51.560;14.368;2022-12-11T13:54:50;99458.56;;;7.29;64.02
65553;BME280;52465;51.560;14.368;2022-12-11T13:57:19;99444.06;;;7.19;64.01
65553;BME280;52465;51.560;14.368;2022-12-11T13:59:50;99438.84;;;7.19;64.20
65553;BME280;52465;51.560;14.368;2022-12-11T14:02:32;99455.16;;;7.29;64.10
65553;BME280;52465;51.560;14.368;2022-12-11T14:05:02;99453.50;;;7.20;64.18
65553;BME280;52465;51.560;14.368;2022-12-11T14:07:31;99440.28;;;7.13;64.55